sensor_id;sensor_type;location;lat;lon;timestamp;P1;durP1;ratioP1;P2;durP2;ratioP2
70444;SDS011;57902;49.638;11.070;2023-06-14T00:01:35;6.15;;;3.28;;
70444;SDS011;57902;49.638;11.070;2023-06-14T00:04:04;6.80;;;3.45;;
70444;SDS011;57902;49.638;11.070;2023-06-14T00:06:32;5.68;;;3.33;;
70444;SDS011;57902;49.638;11.070;2023-06-14T00:09:00;8.50;;;3.70;;
70444;SDS011;57902;49.638;11.070;2023-06-14T00:11:26;5.85;;;3.30;;
70444;SDS011;57902;49.638;11.070;2023-06-14T00:13:53;9.20;;;3.10;;
70444;SDS011;57902;49.638;11.070;2023-06-14T00:16:20;7.35;;;3.45;;
70444;SDS011;57902;49.638;11.070;2023-06-14T00:18:47;7.45;;;2.65;;
70444;SDS011;57902;49.638;11.070;2023-06-14T00:21:14;6.93;;;2.88;;
70444;SDS011;57902;49.638;11.070;2023-06-14T00:23:40;7.60;;;3.38;;
70444;SDS011;57902;49.638;11.070;2023-06-14T00:26:07;6.55;;;3.05;;
70444;SDS011;57902;49.638;11.070;2023-06-14T00:28:34;7.07;;;3.20;;
70444;SDS011;57902;49.638;11.070;2023-06-14T00:31:01;6.57;;;3.22;;
70444;SDS011;57902;49.638;11.070;2023-06-14T00:33:27;8.23;;;3.40;;
70444;SDS011;57902;49.638;11.070;2023-06-14T00:35:54;7.57;;;3.20;;
70444;SDS011;57902;49.638;11.070;2023-06-14T00:38:21;8.30;;;3.33;;
70444;SDS011;57902;49.638;11.070;2023-06-14T00:40:47;7.40;;;2.95;;
70444;SDS011;57902;49.638;11.070;2023-06-14T00:43:14;7.57;;;3.28;;
70444;SDS011;57902;49.638;11.070;2023-06-14T00:45:40;6.47;;;3.15;;
70444;SDS011;57902;49.638;11.070;2023-06-14T00:48:07;6.10;;;3.05;;
70444;SDS011;57902;49.638;11.070;2023-06-14T00:50:35;10.30;;;3.47;;
70444;SDS011;57902;49.638;11.070;2023-06-14T00:53:02;9.15;;;3.50;;
70444;SDS011;57902;49.638;11.070;2023-06-14T00:55:29;7.75;;;3.70;;
70444;SDS011;57902;49.638;11.070;2023-06-14T00:57:56;7.43;;;3.17;;
70444;SDS011;57902;49.638;11.070;2023-06-14T01:00:22;7.07;;;3.42;;
70444;SDS011;57902;49.638;11.070;2023-06-14T01:02:49;8.00;;;3.50;;
70444;SDS011;57902;49.638;11.070;2023-06-14T01:05:16;7.13;;;4.03;;
70444;SDS011;57902;49.638;11.070;2023-06-14T01:07:46;7.10;;;3.50;;
70444;SDS011;57902;49.638;11.070;2023-06-14T01:13:20;8.15;;;3.78;;
70444;SDS011;57902;49.638;11.070;2023-06-14T01:15:50;6.10;;;2.95;;
70444;SDS011;57902;49.638;11.070;2023-06-14T01:18:17;7.05;;;2.97;;
70444;SDS011;57902;49.638;11.070;2023-06-14T01:20:47;8.07;;;3.72;;
70444;SDS011;57902;49.638;11.070;2023-06-14T01:23:17;7.28;;;3.15;;
70444;SDS011;57902;49.638;11.070;2023-06-14T01:25:45;5.57;;;3.20;;
70444;SDS011;57902;49.638;11.070;2023-06-14T01:28:13;6.80;;;3.55;;
70444;SDS011;57902;49.638;11.070;2023-06-14T01:30:44;7.32;;;3.55;;
70444;SDS011;57902;49.638;11.070;2023-06-14T01:33:13;7.32;;;3.85;;
70444;SDS011;57902;49.638;11.070;2023-06-14T01:35:43;7.35;;;3.30;;
70444;SDS011;57902;49.638;11.070;2023-06-14T01:38:13;7.40;;;3.47;;
70444;SDS011;57902;49.638;11.070;2023-06-14T01:40:44;7.82;;;3.40;;
70444;SDS011;57902;49.638;11.070;2023-06-14T01:43:11;6.50;;;3.20;;
70444;SDS011;57902;49.638;11.070;2023-06-14T01:45:40;6.68;;;3.17;;
70444;SDS011;57902;49.638;11.070;2023-06-14T01:48:08;7.22;;;3.22;;
70444;SDS011;57902;49.638;11.070;2023-06-14T01:50:36;6.22;;;3.17;;
70444;SDS011;57902;49.638;11.070;2023-06-14T01:53:02;7.78;;;4.10;;
70444;SDS011;57902;49.638;11.070;2023-06-14T01:55:29;8.23;;;3.38;;
70444;SDS011;57902;49.638;11.070;2023-06-14T01:57:55;7.75;;;3.10;;
70444;SDS011;57902;49.638;11.070;2023-06-14T02:00:22;9.15;;;3.45;;
70444;SDS011;57902;49.638;11.070;2023-06-14T02:02:49;6.35;;;3.42;;
70444;SDS011;57902;49.638;11.070;2023-06-14T02:05:16;7.20;;;3.25;;
70444;SDS011;57902;49.638;11.070;2023-06-14T02:07:45;6.47;;;2.88;;
70444;SDS011;57902;49.638;11.070;2023-06-14T02:10:13;7.85;;;3.00;;
70444;SDS011;57902;49.638;11.070;2023-06-14T02:12:40;6.32;;;3.38;;
70444;SDS011;57902;49.638;11.070;2023-06-14T02:15:07;7.45;;;3.22;;
70444;SDS011;57902;49.638;11.070;2023-06-14T02:17:34;6.07;;;2.70;;
70444;SDS011;57902;49.638;11.070;2023-06-14T02:20:01;7.68;;;3.72;;
70444;SDS011;57902;49.638;11.070;2023-06-14T02:22:31;7.30;;;3.30;;
70444;SDS011;57902;49.638;11.070;2023-06-14T02:24:57;8.57;;;3.55;;
70444;SDS011;57902;49.638;11.070;2023-06-14T02:27:28;6.43;;;3.20;;
70444;SDS011;57902;49.638;11.070;2023-06-14T02:29:54;6.47;;;3.05;;
70444;SDS011;57902;49.638;11.070;2023-06-14T02:32:21;8.68;;;2.65;;
70444;SDS011;57902;49.638;11.070;2023-06-14T02:34:47;7.30;;;3.05;;
70444;SDS011;57902;49.638;11.070;2023-06-14T02:37:16;7.90;;;3.10;;
70444;SDS011;57902;49.638;11.070;2023-06-14T02:39:43;9.68;;;3.22;;
70444;SDS011;57902;49.638;11.070;2023-06-14T02:42:09;7.93;;;3.78;;
70444;SDS011;57902;49.638;11.070;2023-06-14T02:44:36;10.38;;;3.90;;
70444;SDS011;57902;49.638;11.070;2023-06-14T02:47:03;7.32;;;3.40;;
70444;SDS011;57902;49.638;11.070;2023-06-14T02:49:31;9.88;;;3.35;;
70444;SDS011;57902;49.638;11.070;2023-06-14T02:51:57;8.68;;;3.72;;
70444;SDS011;57902;49.638;11.070;2023-06-14T02:54:24;7.70;;;3.63;;
70444;SDS011;57902;49.638;11.070;2023-06-14T02:56:52;6.78;;;3.35;;
70444;SDS011;57902;49.638;11.070;2023-06-14T02:59:19;7.75;;;3.33;;
70444;SDS011;57902;49.638;11.070;2023-06-14T03:01:51;7.75;;;3.45;;
70444;SDS011;57902;49.638;11.070;2023-06-14T03:04:20;8.02;;;3.63;;
70444;SDS011;57902;49.638;11.070;2023-06-14T03:06:47;11.15;;;3.97;;
70444;SDS011;57902;49.638;11.070;2023-06-14T03:09:16;9.63;;;3.40;;
70444;SDS011;57902;49.638;11.070;2023-06-14T03:11:43;6.90;;;3.28;;
70444;SDS011;57902;49.638;11.070;2023-06-14T03:14:10;9.93;;;3.83;;
70444;SDS011;57902;49.638;11.070;2023-06-14T03:16:37;7.95;;;3.55;;
70444;SDS011;57902;49.638;11.070;2023-06-14T03:19:12;8.23;;;3.22;;
70444;SDS011;57902;49.638;11.070;2023-06-14T03:21:38;8.07;;;3.90;;
70444;SDS011;57902;49.638;11.070;2023-06-14T03:24:09;6.97;;;3.78;;
70444;SDS011;57902;49.638;11.070;2023-06-14T03:26:36;6.78;;;3.13;;
70444;SDS011;57902;49.638;11.070;2023-06-14T03:29:03;8.48;;;3.67;;
70444;SDS011;57902;49.638;11.070;2023-06-14T03:31:29;8.55;;;3.90;;
70444;SDS011;57902;49.638;11.070;2023-06-14T03:33:59;7.15;;;3.58;;
70444;SDS011;57902;49.638;11.070;2023-06-14T03:36:26;9.30;;;4.25;;
70444;SDS011;57902;49.638;11.070;2023-06-14T03:38:54;7.22;;;3.45;;
70444;SDS011;57902;49.638;11.070;2023-06-14T03:41:24;6.40;;;3.08;;
70444;SDS011;57902;49.638;11.070;2023-06-14T03:43:51;10.70;;;3.63;;
70444;SDS011;57902;49.638;11.070;2023-06-14T03:46:18;8.25;;;4.47;;
70444;SDS011;57902;49.638;11.070;2023-06-14T03:48:44;8.65;;;3.42;;
70444;SDS011;57902;49.638;11.070;2023-06-14T03:51:14;6.72;;;3.35;;
70444;SDS011;57902;49.638;11.070;2023-06-14T03:53:41;8.10;;;4.15;;
70444;SDS011;57902;49.638;11.070;2023-06-14T03:56:28;8.50;;;3.78;;
70444;SDS011;57902;49.638;11.070;2023-06-14T03:58:54;8.30;;;3.88;;
70444;SDS011;57902;49.638;11.070;2023-06-14T04:01:21;8.75;;;3.78;;
70444;SDS011;57902;49.638;11.070;2023-06-14T04:03:51;11.10;;;4.35;;
70444;SDS011;57902;49.638;11.070;2023-06-14T04:06:18;7.72;;;3.55;;
70444;SDS011;57902;49.638;11.070;2023-06-14T04:08:45;8.20;;;4.00;;
70444;SDS011;57902;49.638;11.070;2023-06-14T04:11:12;8.35;;;3.80;;
70444;SDS011;57902;49.638;11.070;2023-06-14T04:13:38;9.27;;;3.83;;
70444;SDS011;57902;49.638;11.070;2023-06-14T04:16:06;9.48;;;4.05;;
70444;SDS011;57902;49.638;11.070;2023-06-14T04:18:33;8.02;;;3.95;;
70444;SDS011;57902;49.638;11.070;2023-06-14T04:20:59;11.38;;;4.32;;
70444;SDS011;57902;49.638;11.070;2023-06-14T04:23:26;6.95;;;3.83;;
70444;SDS011;57902;49.638;11.070;2023-06-14T04:25:54;7.03;;;3.58;;
70444;SDS011;57902;49.638;11.070;2023-06-14T04:28:26;10.70;;;4.00;;
70444;SDS011;57902;49.638;11.070;2023-06-14T04:30:53;9.88;;;4.80;;
70444;SDS011;57902;49.638;11.070;2023-06-14T04:33:19;9.93;;;4.20;;
70444;SDS011;57902;49.638;11.070;2023-06-14T04:35:46;8.35;;;4.30;;
70444;SDS011;57902;49.638;11.070;2023-06-14T04:38:14;11.35;;;3.92;;
70444;SDS011;57902;49.638;11.070;2023-06-14T04:40:44;9.32;;;3.92;;
70444;SDS011;57902;49.638;11.070;2023-06-14T04:43:12;11.02;;;3.80;;
70444;SDS011;57902;49.638;11.070;2023-06-14T04:45:39;8.65;;;3.63;;
70444;SDS011;57902;49.638;11.070;2023-06-14T04:48:07;8.20;;;3.42;;
70444;SDS011;57902;49.638;11.070;2023-06-14T04:50:38;8.50;;;3.78;;
70444;SDS011;57902;49.638;11.070;2023-06-14T04:53:07;11.38;;;4.20;;
70444;SDS011;57902;49.638;11.070;2023-06-14T04:55:34;7.13;;;3.60;;
70444;SDS011;57902;49.638;11.070;2023-06-14T04:58:17;14.15;;;3.97;;
70444;SDS011;57902;49.638;11.070;2023-06-14T05:00:55;10.15;;;3.85;;
70444;SDS011;57902;49.638;11.070;2023-06-14T05:03:25;8.68;;;3.67;;
70444;SDS011;57902;49.638;11.070;2023-06-14T05:05:55;6.13;;;3.22;;
70444;SDS011;57902;49.638;11.070;2023-06-14T05:08:22;7.93;;;3.65;;
70444;SDS011;57902;49.638;11.070;2023-06-14T05:10:58;7.18;;;3.45;;
70444;SDS011;57902;49.638;11.070;2023-06-14T05:13:43;9.27;;;4.07;;
70444;SDS011;57902;49.638;11.070;2023-06-14T05:16:18;8.75;;;3.75;;
70444;SDS011;57902;49.638;11.070;2023-06-14T05:18:46;6.53;;;3.70;;
70444;SDS011;57902;49.638;11.070;2023-06-14T05:21:13;6.15;;;3.38;;
70444;SDS011;57902;49.638;11.070;2023-06-14T05:23:44;8.00;;;3.70;;
70444;SDS011;57902;49.638;11.070;2023-06-14T05:26:16;8.43;;;3.28;;
70444;SDS011;57902;49.638;11.070;2023-06-14T05:28:45;8.75;;;3.58;;
70444;SDS011;57902;49.638;11.070;2023-06-14T05:31:12;6.20;;;3.55;;
70444;SDS011;57902;49.638;11.070;2023-06-14T05:33:40;7.22;;;3.40;;
70444;SDS011;57902;49.638;11.070;2023-06-14T05:36:10;8.43;;;3.55;;
70444;SDS011;57902;49.638;11.070;2023-06-14T05:38:40;6.50;;;3.33;;
70444;SDS011;57902;49.638;11.070;2023-06-14T05:41:09;7.45;;;3.13;;
70444;SDS011;57902;49.638;11.070;2023-06-14T05:43:36;5.60;;;2.83;;
70444;SDS011;57902;49.638;11.070;2023-06-14T05:46:07;8.48;;;3.70;;
70444;SDS011;57902;49.638;11.070;2023-06-14T05:48:36;5.38;;;3.00;;
70444;SDS011;57902;49.638;11.070;2023-06-14T05:51:12;16.00;;;4.97;;
70444;SDS011;57902;49.638;11.070;2023-06-14T05:53:41;7.15;;;3.78;;
70444;SDS011;57902;49.638;11.070;2023-06-14T05:56:16;6.20;;;2.97;;
70444;SDS011;57902;49.638;11.070;2023-06-14T05:58:44;6.53;;;2.92;;
70444;SDS011;57902;49.638;11.070;2023-06-14T06:03:39;6.22;;;3.03;;
70444;SDS011;57902;49.638;11.070;2023-06-14T06:06:06;8.32;;;3.00;;
70444;SDS011;57902;49.638;11.070;2023-06-14T06:08:34;8.85;;;3.20;;
70444;SDS011;57902;49.638;11.070;2023-06-14T06:11:01;6.47;;;3.20;;
70444;SDS011;57902;49.638;11.070;2023-06-14T06:13:30;7.80;;;3.38;;
70444;SDS011;57902;49.638;11.070;2023-06-14T06:15:56;8.07;;;3.33;;
70444;SDS011;57902;49.638;11.070;2023-06-14T06:18:23;7.97;;;3.30;;
70444;SDS011;57902;49.638;11.070;2023-06-14T06:20:49;6.63;;;3.10;;
70444;SDS011;57902;49.638;11.070;2023-06-14T06:23:16;6.90;;;3.15;;
70444;SDS011;57902;49.638;11.070;2023-06-14T06:25:43;5.47;;;2.95;;
70444;SDS011;57902;49.638;11.070;2023-06-14T06:28:09;7.15;;;3.10;;
70444;SDS011;57902;49.638;11.070;2023-06-14T06:30:37;5.88;;;3.20;;
70444;SDS011;57902;49.638;11.070;2023-06-14T06:33:07;7.53;;;2.95;;
70444;SDS011;57902;49.638;11.070;2023-06-14T06:35:33;8.88;;;3.17;;
70444;SDS011;57902;49.638;11.070;2023-06-14T06:38:00;5.97;;;3.00;;
70444;SDS011;57902;49.638;11.070;2023-06-14T06:40:27;7.20;;;3.10;;
70444;SDS011;57902;49.638;11.070;2023-06-14T06:42:54;7.10;;;3.15;;
70444;SDS011;57902;49.638;11.070;2023-06-14T06:45:21;10.57;;;3.67;;
70444;SDS011;57902;49.638;11.070;2023-06-14T06:47:51;6.40;;;3.03;;
70444;SDS011;57902;49.638;11.070;2023-06-14T06:50:18;5.47;;;3.10;;
70444;SDS011;57902;49.638;11.070;2023-06-14T06:52:48;8.35;;;3.33;;
70444;SDS011;57902;49.638;11.070;2023-06-14T06:55:15;10.07;;;3.15;;
70444;SDS011;57902;49.638;11.070;2023-06-14T06:57:42;8.68;;;3.20;;
70444;SDS011;57902;49.638;11.070;2023-06-14T07:00:08;7.85;;;3.47;;
70444;SDS011;57902;49.638;11.070;2023-06-14T07:02:36;6.50;;;2.95;;
70444;SDS011;57902;49.638;11.070;2023-06-14T07:05:03;7.53;;;3.03;;
70444;SDS011;57902;49.638;11.070;2023-06-14T07:07:31;7.55;;;3.03;;
70444;SDS011;57902;49.638;11.070;2023-06-14T07:09:57;8.43;;;2.85;;
70444;SDS011;57902;49.638;11.070;2023-06-14T07:12:24;8.27;;;2.88;;
70444;SDS011;57902;49.638;11.070;2023-06-14T07:14:51;6.47;;;2.85;;
70444;SDS011;57902;49.638;11.070;2023-06-14T07:17:17;6.13;;;2.80;;
70444;SDS011;57902;49.638;11.070;2023-06-14T07:19:44;8.32;;;3.40;;
70444;SDS011;57902;49.638;11.070;2023-06-14T07:22:10;5.32;;;2.63;;
70444;SDS011;57902;49.638;11.070;2023-06-14T07:24:37;9.27;;;3.30;;
70444;SDS011;57902;49.638;11.070;2023-06-14T07:27:03;8.82;;;3.05;;
70444;SDS011;57902;49.638;11.070;2023-06-14T07:29:30;7.90;;;2.70;;
70444;SDS011;57902;49.638;11.070;2023-06-14T07:31:57;8.60;;;2.92;;
70444;SDS011;57902;49.638;11.070;2023-06-14T07:34:23;8.27;;;3.20;;
70444;SDS011;57902;49.638;11.070;2023-06-14T07:36:49;5.90;;;2.70;;
70444;SDS011;57902;49.638;11.070;2023-06-14T07:39:16;5.60;;;2.88;;
70444;SDS011;57902;49.638;11.070;2023-06-14T07:41:43;5.18;;;2.70;;
70444;SDS011;57902;49.638;11.070;2023-06-14T07:44:09;7.07;;;2.78;;
70444;SDS011;57902;49.638;11.070;2023-06-14T07:46:36;5.32;;;2.50;;
70444;SDS011;57902;49.638;11.070;2023-06-14T07:49:03;7.15;;;2.50;;
70444;SDS011;57902;49.638;11.070;2023-06-14T07:51:30;7.30;;;2.65;;
70444;SDS011;57902;49.638;11.070;2023-06-14T07:53:58;7.40;;;2.70;;
70444;SDS011;57902;49.638;11.070;2023-06-14T07:56:27;6.07;;;2.58;;
70444;SDS011;57902;49.638;11.070;2023-06-14T07:58:53;5.85;;;2.40;;
70444;SDS011;57902;49.638;11.070;2023-06-14T08:01:20;4.70;;;2.38;;
70444;SDS011;57902;49.638;11.070;2023-06-14T08:03:53;5.32;;;2.15;;
70444;SDS011;57902;49.638;11.070;2023-06-14T08:06:20;6.78;;;2.33;;
70444;SDS011;57902;49.638;11.070;2023-06-14T08:08:46;9.98;;;2.95;;
70444;SDS011;57902;49.638;11.070;2023-06-14T08:11:13;5.10;;;2.38;;
70444;SDS011;57902;49.638;11.070;2023-06-14T08:13:39;6.40;;;2.95;;
70444;SDS011;57902;49.638;11.070;2023-06-14T08:16:06;5.90;;;2.70;;
70444;SDS011;57902;49.638;11.070;2023-06-14T08:18:32;5.88;;;2.50;;
70444;SDS011;57902;49.638;11.070;2023-06-14T08:20:59;6.95;;;2.60;;
70444;SDS011;57902;49.638;11.070;2023-06-14T08:23:25;7.18;;;2.45;;
70444;SDS011;57902;49.638;11.070;2023-06-14T08:25:52;5.15;;;2.13;;
70444;SDS011;57902;49.638;11.070;2023-06-14T08:28:19;8.23;;;2.40;;
70444;SDS011;57902;49.638;11.070;2023-06-14T08:30:45;5.45;;;2.47;;
70444;SDS011;57902;49.638;11.070;2023-06-14T08:33:11;5.63;;;2.00;;
70444;SDS011;57902;49.638;11.070;2023-06-14T08:35:42;8.85;;;2.50;;
70444;SDS011;57902;49.638;11.070;2023-06-14T08:38:10;7.80;;;2.45;;
70444;SDS011;57902;49.638;11.070;2023-06-14T08:40:38;8.13;;;2.30;;
70444;SDS011;57902;49.638;11.070;2023-06-14T08:43:06;9.63;;;3.08;;
70444;SDS011;57902;49.638;11.070;2023-06-14T08:45:33;7.28;;;2.58;;
70444;SDS011;57902;49.638;11.070;2023-06-14T08:48:00;6.28;;;2.55;;
70444;SDS011;57902;49.638;11.070;2023-06-14T08:50:27;5.20;;;2.40;;
70444;SDS011;57902;49.638;11.070;2023-06-14T08:53:00;5.28;;;2.22;;
70444;SDS011;57902;49.638;11.070;2023-06-14T08:55:30;9.10;;;2.33;;
70444;SDS011;57902;49.638;11.070;2023-06-14T08:58:02;9.68;;;2.42;;
70444;SDS011;57902;49.638;11.070;2023-06-14T09:05:25;6.60;;;2.38;;
70444;SDS011;57902;49.638;11.070;2023-06-14T09:07:53;5.15;;;2.20;;
70444;SDS011;57902;49.638;11.070;2023-06-14T09:10:23;9.10;;;2.67;;
70444;SDS011;57902;49.638;11.070;2023-06-14T09:12:53;5.72;;;2.33;;
70444;SDS011;57902;49.638;11.070;2023-06-14T09:15:19;6.53;;;2.40;;
70444;SDS011;57902;49.638;11.070;2023-06-14T09:17:46;7.43;;;2.38;;
70444;SDS011;57902;49.638;11.070;2023-06-14T09:20:14;7.13;;;2.55;;
70444;SDS011;57902;49.638;11.070;2023-06-14T09:22:45;6.00;;;2.13;;
70444;SDS011;57902;49.638;11.070;2023-06-14T09:25:12;6.97;;;2.45;;
70444;SDS011;57902;49.638;11.070;2023-06-14T09:28:01;5.88;;;2.30;;
70444;SDS011;57902;49.638;11.070;2023-06-14T09:30:28;5.32;;;2.22;;
70444;SDS011;57902;49.638;11.070;2023-06-14T09:32:54;9.43;;;2.38;;
70444;SDS011;57902;49.638;11.070;2023-06-14T09:37:48;5.30;;;2.53;;
70444;SDS011;57902;49.638;11.070;2023-06-14T09:40:20;4.93;;;2.40;;
70444;SDS011;57902;49.638;11.070;2023-06-14T09:42:47;9.35;;;2.72;;
70444;SDS011;57902;49.638;11.070;2023-06-14T09:45:14;7.97;;;2.90;;
70444;SDS011;57902;49.638;11.070;2023-06-14T09:47:46;4.93;;;2.33;;
70444;SDS011;57902;49.638;11.070;2023-06-14T09:50:31;5.57;;;2.35;;
70444;SDS011;57902;49.638;11.070;2023-06-14T09:53:00;4.93;;;2.45;;
70444;SDS011;57902;49.638;11.070;2023-06-14T09:55:31;6.72;;;2.42;;
70444;SDS011;57902;49.638;11.070;2023-06-14T09:58:03;6.90;;;2.40;;
70444;SDS011;57902;49.638;11.070;2023-06-14T10:00:33;5.75;;;2.17;;
70444;SDS011;57902;49.638;11.070;2023-06-14T10:03:03;6.00;;;2.20;;
70444;SDS011;57902;49.638;11.070;2023-06-14T10:05:34;6.43;;;2.40;;
70444;SDS011;57902;49.638;11.070;2023-06-14T10:08:24;5.93;;;2.30;;
70444;SDS011;57902;49.638;11.070;2023-06-14T10:10:52;7.13;;;2.42;;
70444;SDS011;57902;49.638;11.070;2023-06-14T10:13:28;6.03;;;2.80;;
70444;SDS011;57902;49.638;11.070;2023-06-14T10:21:40;6.72;;;2.42;;
70444;SDS011;57902;49.638;11.070;2023-06-14T10:24:13;12.15;;;2.70;;
70444;SDS011;57902;49.638;11.070;2023-06-14T10:26:51;6.22;;;2.22;;
70444;SDS011;57902;49.638;11.070;2023-06-14T10:29:25;6.75;;;2.45;;
70444;SDS011;57902;49.638;11.070;2023-06-14T10:31:55;7.43;;;2.53;;
70444;SDS011;57902;49.638;11.070;2023-06-14T10:34:27;7.97;;;2.22;;
70444;SDS011;57902;49.638;11.070;2023-06-14T10:37:02;6.22;;;2.15;;
70444;SDS011;57902;49.638;11.070;2023-06-14T10:41:56;8.63;;;3.17;;
70444;SDS011;57902;49.638;11.070;2023-06-14T10:44:30;9.32;;;2.22;;
70444;SDS011;57902;49.638;11.070;2023-06-14T10:47:31;5.63;;;2.40;;
70444;SDS011;57902;49.638;11.070;2023-06-14T10:52:32;5.82;;;2.70;;
70444;SDS011;57902;49.638;11.070;2023-06-14T10:55:02;6.15;;;2.50;;
70444;SDS011;57902;49.638;11.070;2023-06-14T10:57:33;5.90;;;2.60;;
70444;SDS011;57902;49.638;11.070;2023-06-14T11:00:16;4.80;;;2.25;;
70444;SDS011;57902;49.638;11.070;2023-06-14T11:11:12;8.15;;;2.40;;
70444;SDS011;57902;49.638;11.070;2023-06-14T11:13:41;7.90;;;2.40;;
70444;SDS011;57902;49.638;11.070;2023-06-14T11:16:16;6.15;;;2.40;;
70444;SDS011;57902;49.638;11.070;2023-06-14T11:18:45;6.20;;;2.67;;
70444;SDS011;57902;49.638;11.070;2023-06-14T11:21:15;5.90;;;2.20;;
70444;SDS011;57902;49.638;11.070;2023-06-14T11:23:48;6.65;;;2.45;;
70444;SDS011;57902;49.638;11.070;2023-06-14T11:26:16;8.52;;;3.10;;
70444;SDS011;57902;49.638;11.070;2023-06-14T11:28:49;5.22;;;2.33;;
70444;SDS011;57902;49.638;11.070;2023-06-14T11:31:21;5.97;;;2.25;;
70444;SDS011;57902;49.638;11.070;2023-06-14T11:33:51;5.05;;;2.03;;
70444;SDS011;57902;49.638;11.070;2023-06-14T11:36:19;4.95;;;2.30;;
70444;SDS011;57902;49.638;11.070;2023-06-14T11:38:46;5.82;;;2.33;;
70444;SDS011;57902;49.638;11.070;2023-06-14T11:41:12;5.20;;;2.25;;
70444;SDS011;57902;49.638;11.070;2023-06-14T11:43:39;6.80;;;2.80;;
70444;SDS011;57902;49.638;11.070;2023-06-14T11:46:13;8.60;;;2.38;;
70444;SDS011;57902;49.638;11.070;2023-06-14T11:48:44;8.38;;;2.85;;
70444;SDS011;57902;49.638;11.070;2023-06-14T11:51:11;4.55;;;2.03;;
70444;SDS011;57902;49.638;11.070;2023-06-14T11:53:38;5.30;;;2.42;;
70444;SDS011;57902;49.638;11.070;2023-06-14T11:56:05;4.32;;;2.17;;
70444;SDS011;57902;49.638;11.070;2023-06-14T11:58:32;6.22;;;2.25;;
70444;SDS011;57902;49.638;11.070;2023-06-14T12:00:58;3.55;;;2.10;;
70444;SDS011;57902;49.638;11.070;2023-06-14T12:03:33;5.32;;;2.22;;
70444;SDS011;57902;49.638;11.070;2023-06-14T12:06:06;5.63;;;2.33;;
70444;SDS011;57902;49.638;11.070;2023-06-14T12:08:37;7.43;;;2.40;;
70444;SDS011;57902;49.638;11.070;2023-06-14T12:11:10;5.47;;;2.17;;
70444;SDS011;57902;49.638;11.070;2023-06-14T12:16:13;5.88;;;2.63;;
70444;SDS011;57902;49.638;11.070;2023-06-14T12:18:40;8.02;;;2.20;;
70444;SDS011;57902;49.638;11.070;2023-06-14T12:21:10;5.70;;;2.22;;
70444;SDS011;57902;49.638;11.070;2023-06-14T12:23:42;8.52;;;2.63;;
70444;SDS011;57902;49.638;11.070;2023-06-14T12:26:09;6.85;;;2.22;;
70444;SDS011;57902;49.638;11.070;2023-06-14T12:28:37;6.40;;;2.30;;
70444;SDS011;57902;49.638;11.070;2023-06-14T12:31:06;6.55;;;2.30;;
70444;SDS011;57902;49.638;11.070;2023-06-14T12:33:33;6.65;;;2.30;;
70444;SDS011;57902;49.638;11.070;2023-06-14T12:35:59;4.00;;;2.00;;
70444;SDS011;57902;49.638;11.070;2023-06-14T12:38:29;5.55;;;2.10;;
70444;SDS011;57902;49.638;11.070;2023-06-14T12:40:56;5.75;;;2.13;;
70444;SDS011;57902;49.638;11.070;2023-06-14T12:43:23;6.57;;;2.50;;
70444;SDS011;57902;49.638;11.070;2023-06-14T12:45:50;5.05;;;2.15;;
70444;SDS011;57902;49.638;11.070;2023-06-14T12:48:17;5.47;;;2.50;;
70444;SDS011;57902;49.638;11.070;2023-06-14T12:50:44;5.70;;;2.22;;
70444;SDS011;57902;49.638;11.070;2023-06-14T12:53:10;5.20;;;2.20;;
70444;SDS011;57902;49.638;11.070;2023-06-14T12:55:37;6.60;;;2.42;;
70444;SDS011;57902;49.638;11.070;2023-06-14T12:58:04;4.97;;;2.10;;
70444;SDS011;57902;49.638;11.070;2023-06-14T13:00:30;6.47;;;1.92;;
70444;SDS011;57902;49.638;11.070;2023-06-14T13:02:57;4.80;;;1.98;;
70444;SDS011;57902;49.638;11.070;2023-06-14T13:05:24;5.88;;;2.10;;
70444;SDS011;57902;49.638;11.070;2023-06-14T13:07:50;5.80;;;2.25;;
70444;SDS011;57902;49.638;11.070;2023-06-14T13:10:17;6.30;;;2.20;;
70444;SDS011;57902;49.638;11.070;2023-06-14T13:12:44;5.85;;;2.30;;
70444;SDS011;57902;49.638;11.070;2023-06-14T13:15:11;5.35;;;2.30;;
70444;SDS011;57902;49.638;11.070;2023-06-14T13:17:38;4.70;;;2.20;;
70444;SDS011;57902;49.638;11.070;2023-06-14T13:20:05;6.28;;;2.30;;
70444;SDS011;57902;49.638;11.070;2023-06-14T13:22:33;4.47;;;2.10;;
70444;SDS011;57902;49.638;11.070;2023-06-14T13:25:02;4.28;;;2.03;;
70444;SDS011;57902;49.638;11.070;2023-06-14T13:27:29;5.50;;;2.20;;
70444;SDS011;57902;49.638;11.070;2023-06-14T13:29:56;4.90;;;2.42;;
70444;SDS011;57902;49.638;11.070;2023-06-14T13:32:23;5.55;;;2.20;;
70444;SDS011;57902;49.638;11.070;2023-06-14T13:34:50;4.30;;;1.95;;
70444;SDS011;57902;49.638;11.070;2023-06-14T13:37:17;5.80;;;2.08;;
70444;SDS011;57902;49.638;11.070;2023-06-14T13:39:43;6.85;;;2.25;;
70444;SDS011;57902;49.638;11.070;2023-06-14T13:42:10;5.35;;;2.10;;
70444;SDS011;57902;49.638;11.070;2023-06-14T13:44:37;5.57;;;2.22;;
70444;SDS011;57902;49.638;11.070;2023-06-14T13:47:03;6.03;;;2.13;;
70444;SDS011;57902;49.638;11.070;2023-06-14T13:49:30;5.10;;;2.42;;
70444;SDS011;57902;49.638;11.070;2023-06-14T13:52:00;5.28;;;2.03;;
70444;SDS011;57902;49.638;11.070;2023-06-14T13:54:27;5.55;;;2.13;;
70444;SDS011;57902;49.638;11.070;2023-06-14T13:56:54;3.78;;;1.95;;
70444;SDS011;57902;49.638;11.070;2023-06-14T13:59:21;7.43;;;2.20;;
70444;SDS011;57902;49.638;11.070;2023-06-14T14:01:48;6.65;;;2.22;;
70444;SDS011;57902;49.638;11.070;2023-06-14T14:04:15;7.90;;;2.30;;
70444;SDS011;57902;49.638;11.070;2023-06-14T14:06:41;5.93;;;2.33;;
70444;SDS011;57902;49.638;11.070;2023-06-14T14:09:08;4.85;;;1.98;;
70444;SDS011;57902;49.638;11.070;2023-06-14T14:11:35;4.80;;;2.03;;
70444;SDS011;57902;49.638;11.070;2023-06-14T14:14:01;6.30;;;1.98;;
70444;SDS011;57902;49.638;11.070;2023-06-14T14:16:29;6.57;;;2.05;;
70444;SDS011;57902;49.638;11.070;2023-06-14T14:21:25;5.95;;;2.03;;
70444;SDS011;57902;49.638;11.070;2023-06-14T14:23:52;3.95;;;1.95;;
70444;SDS011;57902;49.638;11.070;2023-06-14T14:26:19;4.03;;;1.98;;
70444;SDS011;57902;49.638;11.070;2023-06-14T14:28:46;4.43;;;2.10;;
70444;SDS011;57902;49.638;11.070;2023-06-14T14:31:13;5.32;;;2.13;;
70444;SDS011;57902;49.638;11.070;2023-06-14T14:33:39;5.53;;;2.25;;
70444;SDS011;57902;49.638;11.070;2023-06-14T14:36:06;5.20;;;1.98;;
70444;SDS011;57902;49.638;11.070;2023-06-14T14:38:33;5.57;;;1.90;;
70444;SDS011;57902;49.638;11.070;2023-06-14T14:41:00;5.70;;;1.98;;
70444;SDS011;57902;49.638;11.070;2023-06-14T14:43:27;5.28;;;2.10;;
70444;SDS011;57902;49.638;11.070;2023-06-14T14:45:56;5.07;;;2.00;;
70444;SDS011;57902;49.638;11.070;2023-06-14T14:48:23;4.40;;;2.20;;
70444;SDS011;57902;49.638;11.070;2023-06-14T14:50:53;5.00;;;2.30;;
70444;SDS011;57902;49.638;11.070;2023-06-14T14:53:19;4.43;;;2.17;;
70444;SDS011;57902;49.638;11.070;2023-06-14T14:55:46;4.97;;;2.03;;
70444;SDS011;57902;49.638;11.070;2023-06-14T14:58:13;4.45;;;2.05;;
70444;SDS011;57902;49.638;11.070;2023-06-14T15:00:40;5.55;;;1.92;;
70444;SDS011;57902;49.638;11.070;2023-06-14T15:03:06;5.78;;;2.08;;
70444;SDS011;57902;49.638;11.070;2023-06-14T15:05:33;5.28;;;2.42;;
70444;SDS011;57902;49.638;11.070;2023-06-14T15:08:00;7.03;;;2.22;;
70444;SDS011;57902;49.638;11.070;2023-06-14T15:10:26;6.28;;;2.00;;
70444;SDS011;57902;49.638;11.070;2023-06-14T15:12:52;5.45;;;2.05;;
70444;SDS011;57902;49.638;11.070;2023-06-14T15:15:19;4.93;;;1.90;;
70444;SDS011;57902;49.638;11.070;2023-06-14T15:17:46;5.07;;;2.20;;